Pires Coelho — CUPM6 — position and weather

sailwx.info

Track history (hours):
 
Tides and Currents Weather Stations Pressure Air Temp Water Temp Dewpoint Dewpoint Depression Visibility Wind Speed Wind Dir Waves Ship Positions

Pires Coelho

Last reported at 2015-Jul-03 11:34 UTC. Time now 2015-Jul-03 12:18 UTC.
Position N 36°52' W 007°57'.

Length 27 m.

Type: Ship. MMSI: 263236000.

Date/timePositionNaut miles runAvg speedWind from/ knotsBaromVisibWave heightAir tempDewpointWater temp
2015-Jul-03 11:34N 36°52' W 007°57'3 2.9
2015-Jul-03 10:33N 36°51' W 008°00'4 1.8
2015-Jul-03 08:33N 36°52' W 008°05'2 2.4
2015-Jul-03 07:34N 36°51' W 008°02'3 3.1
2015-Jul-03 06:34N 36°51' W 007°58'3 2.9
2015-Jul-03 05:33N 36°52' W 007°55'11 5.6
2015-Jul-03 03:33N 36°57' W 008°07'10 9.7
2015-Jul-03 02:33N 37°01' W 008°18'1010.1
2015-Jul-03 01:33N 37°05' W 008°30'3 2.8
2015-Jul-03 00:29N 37°08' W 008°32'0 0.0
2015-Jul-02 23:31N 37°08' W 008°32'0 0.0
2015-Jul-02 22:31N 37°08' W 008°32'6 6.8
2015-Jul-02 21:33N 37°02' W 008°28'10 9.5
2015-Jul-02 20:33N 36°55' W 008°20'9 9.3
2015-Jul-02 19:34N 36°48' W 008°13'2 2.2
2015-Jul-02 18:34N 36°47' W 008°10'3 3.0
2015-Jul-02 17:33N 36°48' W 008°06'3 3.0
2015-Jul-02 16:33N 36°49' W 008°03'3 2.9
2015-Jul-02 15:34N 36°50' W 007°59'3 2.9
2015-Jul-02 14:33N 36°51' W 007°56'3 2.2
2015-Jul-02 13:22N 36°52' W 007°53'2 2.0
2015-Jul-02 12:09N 36°52' W 007°56'3 2.8
2015-Jul-02 11:09N 36°51' W 007°59'2 2.8
2015-Jul-02 10:33N 36°51' W 008°01'3 2.3
2015-Jul-02 09:14N 36°52' W 008°05'1 1.4
2015-Jul-02 08:33N 36°51' W 008°04'3 2.9
2015-Jul-02 07:33N 36°51' W 008°01'3 3.0
2015-Jul-02 06:30N 36°52' W 007°57'3 0.3
2015-Jul-01 19:06N 36°49' W 007°60'2 2.8
2015-Jul-01 18:33N 36°49' W 008°01'0 0.2
2015-Jul-01 17:34N 36°49' W 008°01'3 2.9
2015-Jul-01 16:33N 36°50' W 007°58'3 2.9
2015-Jul-01 15:33N 36°51' W 007°55'2 1.0
2015-Jul-01 13:24N 36°52' W 007°57'6 2.8
2015-Jul-01 11:17N 36°51' W 008°04'4 3.0
2015-Jul-01 10:06N 36°49' W 008°08'0 0.6
2015-Jul-01 09:33N 36°49' W 008°08'3 2.9
2015-Jul-01 08:26N 36°50' W 008°04'3 3.0
2015-Jul-01 07:32N 36°51' W 008°01'3 3.1
2015-Jul-01 06:30N 36°52' W 007°57'7 3.5
2015-Jul-01 04:21N 36°56' W 008°04'8 9.5
2015-Jul-01 03:34N 36°59' W 008°13'10 9.6
2015-Jul-01 02:34N 37°03' W 008°24'8 6.9
2015-Jul-01 01:27N 37°08' W 008°32'0 0.0
2015-Jul-01 00:27N 37°08' W 008°32'0 0.0
2015-Jun-30 23:27N 37°08' W 008°32'0 0.0
2015-Jun-30 22:33N 37°08' W 008°32'9 9.5
2015-Jun-30 21:33N 36°59' W 008°32'11 8.1
2015-Jun-30 20:15N 36°48' W 008°34'1 1.3
2015-Jun-30 19:32N 36°47' W 008°35'4 1.4
2015-Jun-30 16:33N 36°48' W 008°40'3 3.2
2015-Jun-30 15:30N 36°51' W 008°39'1 0.7
2015-Jun-30 14:34N 36°51' W 008°38'3 2.7
2015-Jun-30 13:33N 36°49' W 008°36'2 1.7
2015-Jun-30 12:32N 36°49' W 008°34'3 2.6
2015-Jun-30 11:30N 36°49' W 008°37'3 2.9
2015-Jun-30 10:32N 36°50' W 008°40'1 1.0
2015-Jun-30 09:06N 36°49' W 008°39'2 3.1
2015-Jun-30 08:28N 36°48' W 008°36'3 1.4
2015-Jun-30 06:23N 36°47' W 008°33'2 2.7
2015-Jun-30 05:31N 36°47' W 008°30'7 3.0
2015-Jun-30 03:12N 36°46' W 008°21'3 0.9
2015-Jun-29 23:33N 36°47' W 008°25'3 2.9
2015-Jun-29 22:33N 36°47' W 008°29'3 3.3
2015-Jun-29 21:32N 36°47' W 008°33'2 1.6
2015-Jun-29 20:32N 36°47' W 008°35'3 2.9
2015-Jun-29 19:33N 36°47' W 008°39'13 6.0
2015-Jun-29 17:23N 36°48' W 008°55'1 0.8
2015-Jun-29 16:30N 36°47' W 008°56'2 0.9
2015-Jun-29 14:33N 36°47' W 008°58'2 0.7
2015-Jun-29 12:26N 36°47' W 008°60'1 0.1
2015-Jun-29 06:33N 36°47' W 009°01'6 6.1
2015-Jun-29 05:33N 36°49' W 009°08'1 0.6
2015-Jun-29 04:33N 36°50' W 009°08'3 2.9
2015-Jun-29 03:33N 36°53' W 009°07'4 2.9
2015-Jun-29 02:21N 36°56' W 009°08'2 2.9
2015-Jun-29 01:32N 36°59' W 009°08'3 2.8
2015-Jun-29 00:33N 37°01' W 009°08'6 6.2
2015-Jun-28 23:33N 37°00' W 009°00'4 3.8
2015-Jun-28 22:33N 37°01' W 008°56'0 0.0
2015-Jun-28 21:33N 37°01' W 008°56'0 0.0
2015-Jun-28 20:31N 37°01' W 008°56'0 0.0
2015-Jun-28 19:23N 37°01' W 008°56'0 0.3
2015-Jun-28 18:34N 37°00' W 008°55'9 9.3
2015-Jun-28 17:33N 36°52' W 008°60'5 5.4
2015-Jun-28 16:33N 36°47' W 009°02'3 2.7
2015-Jun-28 15:34N 36°47' W 008°59'3 2.9
2015-Jun-28 14:33N 36°48' W 008°55'3 2.8
2015-Jun-28 13:28N 36°48' W 008°51'3 2.9
2015-Jun-28 12:28N 36°47' W 008°48'3 3.1
2015-Jun-28 11:33N 36°47' W 008°44'1 0.8
2015-Jun-28 10:34N 36°47' W 008°45'3 2.8
2015-Jun-28 09:34N 36°47' W 008°48'3 2.8
2015-Jun-28 08:33N 36°48' W 008°52'7 7.3
2015-Jun-28 07:33N 36°47' W 009°01'1 1.3
2015-Jun-28 06:32N 36°46' W 009°02'1 1.1
2015-Jun-28 05:33N 36°47' W 009°04'9 2.8
2015-Jun-28 02:27N 36°55' W 009°08'3 3.0
2015-Jun-28 01:33N 36°58' W 009°08'3 2.7
2015-Jun-28 00:33N 36°55' W 009°07'3 2.8
2015-Jun-27 23:33N 36°52' W 009°07'2 2.5
2015-Jun-27 22:34N 36°50' W 009°08'6 5.9
2015-Jun-27 21:32N 36°50' W 009°00'8 8.2
2015-Jun-27 20:33N 36°52' W 008°50'2 1.8
2015-Jun-27 19:33N 36°50' W 008°51'3 2.7
2015-Jun-27 18:33N 36°48' W 008°53'3 2.8
2015-Jun-27 17:33N 36°48' W 008°56'3 2.8
2015-Jun-27 16:33N 36°47' W 008°60'3 2.7
2015-Jun-27 15:34N 36°46' W 009°03'3 2.6
2015-Jun-27 14:33N 36°47' W 008°60'3 2.9
2015-Jun-27 13:33N 36°47' W 008°56'7 1.7
2015-Jun-27 09:26N 36°47' W 008°47'4 2.9
2015-Jun-27 08:06N 36°48' W 008°52'2 2.9
2015-Jun-27 07:29N 36°47' W 008°54'3 2.9
2015-Jun-27 06:33N 36°47' W 008°58'3 2.6
2015-Jun-27 05:31N 36°47' W 009°01'6 6.2
2015-Jun-27 04:33N 36°47' W 009°09'1 1.3
2015-Jun-27 03:33N 36°49' W 009°09'3 2.9
2015-Jun-27 02:33N 36°51' W 009°09'3 2.8
2015-Jun-27 01:33N 36°54' W 009°08'0 0.4
2015-Jun-27 00:34N 36°54' W 009°08'3 2.8
2015-Jun-26 23:34N 36°52' W 009°08'3 3.1
2015-Jun-26 22:28N 36°48' W 009°08'1 0.7
2015-Jun-26 21:33N 36°49' W 009°08'3 3.0
2015-Jun-26 20:33N 36°52' W 009°07'3 2.9
2015-Jun-26 19:33N 36°55' W 009°07'3 2.9
2015-Jun-26 18:33N 36°58' W 009°08'10 4.9
2015-Jun-26 16:24N 37°08' W 009°08'910.1
2015-Jun-26 15:33N 37°16' W 009°09'7 6.5
2015-Jun-26 14:33N 37°23' W 009°09'3 2.9
2015-Jun-26 13:33N 37°26' W 009°09'3 3.2
2015-Jun-26 12:33N 37°29' W 009°08'2 2.4
2015-Jun-26 11:34N 37°27' W 009°09'3 2.7
2015-Jun-26 10:33N 37°24' W 009°09'0 0.3
2015-Jun-26 09:33N 37°24' W 009°09'3 2.7
2015-Jun-26 08:33N 37°27' W 009°08'1 0.7
2015-Jun-26 06:33N 37°26' W 009°09'3 2.7
2015-Jun-26 05:33N 37°23' W 009°08'5 5.4
2015-Jun-26 04:33N 37°18' W 009°06'9 8.6
2015-Jun-26 03:33N 37°10' W 009°03'9 9.0
2015-Jun-26 02:33N 37°01' W 008°60'3 3.0
2015-Jun-26 01:24N 37°01' W 008°56'0 0.0
2015-Jun-26 00:31N 37°01' W 008°56'0 0.0
2015-Jun-25 23:32N 37°01' W 008°56'0 0.0
2015-Jun-25 22:32N 37°01' W 008°56'0 0.0
2015-Jun-25 21:23N 37°01' W 008°56'3 4.1
2015-Jun-25 20:33N 37°01' W 008°60'1210.1
2015-Jun-25 19:24N 37°12' W 009°05'9 9.9
2015-Jun-25 18:27N 37°21' W 009°09'3 2.7
2015-Jun-25 17:20N 37°24' W 009°09'2 2.9
2015-Jun-25 16:33N 37°26' W 009°09'3 2.9
2015-Jun-25 15:33N 37°29' W 009°08'1 0.9
2015-Jun-25 14:33N 37°28' W 009°09'3 2.8
2015-Jun-25 13:34N 37°25' W 009°09'2 2.3
2015-Jun-25 12:33N 37°23' W 009°09'3 2.8
2015-Jun-25 11:33N 37°26' W 009°09'3 3.0
2015-Jun-25 10:27N 37°29' W 009°08'1 1.1
2015-Jun-25 09:33N 37°28' W 009°08'3 2.9
2015-Jun-25 08:31N 37°25' W 009°08'3 2.8
2015-Jun-25 07:33N 37°23' W 009°08'13 0.9
2015-Jun-24 17:20N 37°35' W 009°12'1 1.1
2015-Jun-24 16:32N 37°36' W 009°12'3 2.9
2015-Jun-24 15:32N 37°39' W 009°13'3 2.9
2015-Jun-24 14:32N 37°42' W 009°14'3 2.9
2015-Jun-24 13:33N 37°45' W 009°14'3 3.2
2015-Jun-24 12:32N 37°48' W 009°15'1 1.3
2015-Jun-24 11:33N 37°47' W 009°16'3 2.8
2015-Jun-24 10:32N 37°44' W 009°15'3 3.4
2015-Jun-24 09:33N 37°41' W 009°14'3 2.6
2015-Jun-24 08:28N 37°44' W 009°14'3 2.8
2015-Jun-24 07:33N 37°46' W 009°14'3 2.8
2015-Jun-24 06:31N 37°49' W 009°15'3 2.6
2015-Jun-24 05:33N 37°52' W 009°14'6 6.4
2015-Jun-24 04:33N 37°58' W 009°12'10 9.6
2015-Jun-24 03:33N 38°07' W 009°10'10 9.8
2015-Jun-24 02:33N 38°17' W 009°08'10 9.6
2015-Jun-24 01:32N 38°26' W 009°06'0 0.1
2015-Jun-23 23:19N 38°26' W 009°07'0 0.0
2015-Jun-23 22:25N 38°26' W 009°07'0 0.0
2015-Jun-23 21:31N 38°26' W 009°07'0 0.1
2015-Jun-23 20:31N 38°26' W 009°07'0 0.0
2015-Jun-23 19:29N 38°26' W 009°07'6 7.7
2015-Jun-23 18:44N 38°24' W 009°14'  
Track history (hours):
 
Tides and Currents Weather Stations Pressure Air Temp Water Temp Dewpoint Dewpoint Depression Visibility Wind Speed Wind Dir Waves Ship Positions

Pires Coelho

Last reported at 2015-Jul-03 11:34 UTC. Time now 2015-Jul-03 12:18 UTC.
Position N 36°52' W 007°57'.

Length 27 m.

Type: Ship. MMSI: 263236000.

Date/timePositionNaut miles runAvg speedWind from/ knotsBaromVisibWave heightAir tempDewpointWater temp
2015-Jul-03 11:34N 36°52' W 007°57'3 2.9
2015-Jul-03 10:33N 36°51' W 008°00'4 1.8
2015-Jul-03 08:33N 36°52' W 008°05'2 2.4
2015-Jul-03 07:34N 36°51' W 008°02'3 3.1
2015-Jul-03 06:34N 36°51' W 007°58'3 2.9
2015-Jul-03 05:33N 36°52' W 007°55'11 5.6
2015-Jul-03 03:33N 36°57' W 008°07'10 9.7
2015-Jul-03 02:33N 37°01' W 008°18'1010.1
2015-Jul-03 01:33N 37°05' W 008°30'3 2.8
2015-Jul-03 00:29N 37°08' W 008°32'0 0.0
2015-Jul-02 23:31N 37°08' W 008°32'0 0.0
2015-Jul-02 22:31N 37°08' W 008°32'6 6.8
2015-Jul-02 21:33N 37°02' W 008°28'10 9.5
2015-Jul-02 20:33N 36°55' W 008°20'9 9.3
2015-Jul-02 19:34N 36°48' W 008°13'2 2.2
2015-Jul-02 18:34N 36°47' W 008°10'3 3.0
2015-Jul-02 17:33N 36°48' W 008°06'3 3.0
2015-Jul-02 16:33N 36°49' W 008°03'3 2.9
2015-Jul-02 15:34N 36°50' W 007°59'3 2.9
2015-Jul-02 14:33N 36°51' W 007°56'3 2.2
2015-Jul-02 13:22N 36°52' W 007°53'2 2.0
2015-Jul-02 12:09N 36°52' W 007°56'3 2.8
2015-Jul-02 11:09N 36°51' W 007°59'2 2.8
2015-Jul-02 10:33N 36°51' W 008°01'3 2.3
2015-Jul-02 09:14N 36°52' W 008°05'1 1.4
2015-Jul-02 08:33N 36°51' W 008°04'3 2.9
2015-Jul-02 07:33N 36°51' W 008°01'3 3.0
2015-Jul-02 06:30N 36°52' W 007°57'3 0.3
2015-Jul-01 19:06N 36°49' W 007°60'2 2.8
2015-Jul-01 18:33N 36°49' W 008°01'0 0.2
2015-Jul-01 17:34N 36°49' W 008°01'3 2.9
2015-Jul-01 16:33N 36°50' W 007°58'3 2.9
2015-Jul-01 15:33N 36°51' W 007°55'2 1.0
2015-Jul-01 13:24N 36°52' W 007°57'6 2.8
2015-Jul-01 11:17N 36°51' W 008°04'4 3.0
2015-Jul-01 10:06N 36°49' W 008°08'0 0.6
2015-Jul-01 09:33N 36°49' W 008°08'3 2.9
2015-Jul-01 08:26N 36°50' W 008°04'3 3.0
2015-Jul-01 07:32N 36°51' W 008°01'3 3.1
2015-Jul-01 06:30N 36°52' W 007°57'7 3.5
2015-Jul-01 04:21N 36°56' W 008°04'8 9.5
2015-Jul-01 03:34N 36°59' W 008°13'10 9.6
2015-Jul-01 02:34N 37°03' W 008°24'8 6.9
2015-Jul-01 01:27N 37°08' W 008°32'0 0.0
2015-Jul-01 00:27N 37°08' W 008°32'0 0.0
2015-Jun-30 23:27N 37°08' W 008°32'0 0.0
2015-Jun-30 22:33N 37°08' W 008°32'9 9.5
2015-Jun-30 21:33N 36°59' W 008°32'11 8.1
2015-Jun-30 20:15N 36°48' W 008°34'1 1.3
2015-Jun-30 19:32N 36°47' W 008°35'4 1.4
2015-Jun-30 16:33N 36°48' W 008°40'3 3.2
2015-Jun-30 15:30N 36°51' W 008°39'1 0.7
2015-Jun-30 14:34N 36°51' W 008°38'3 2.7
2015-Jun-30 13:33N 36°49' W 008°36'2 1.7
2015-Jun-30 12:32N 36°49' W 008°34'3 2.6
2015-Jun-30 11:30N 36°49' W 008°37'3 2.9
2015-Jun-30 10:32N 36°50' W 008°40'1 1.0
2015-Jun-30 09:06N 36°49' W 008°39'2 3.1
2015-Jun-30 08:28N 36°48' W 008°36'3 1.4
2015-Jun-30 06:23N 36°47' W 008°33'2 2.7
2015-Jun-30 05:31N 36°47' W 008°30'7 3.0
2015-Jun-30 03:12N 36°46' W 008°21'3 0.9
2015-Jun-29 23:33N 36°47' W 008°25'3 2.9
2015-Jun-29 22:33N 36°47' W 008°29'3 3.3
2015-Jun-29 21:32N 36°47' W 008°33'2 1.6
2015-Jun-29 20:32N 36°47' W 008°35'3 2.9
2015-Jun-29 19:33N 36°47' W 008°39'13 6.0
2015-Jun-29 17:23N 36°48' W 008°55'1 0.8
2015-Jun-29 16:30N 36°47' W 008°56'2 0.9
2015-Jun-29 14:33N 36°47' W 008°58'2 0.7
2015-Jun-29 12:26N 36°47' W 008°60'1 0.1
2015-Jun-29 06:33N 36°47' W 009°01'6 6.1
2015-Jun-29 05:33N 36°49' W 009°08'1 0.6
2015-Jun-29 04:33N 36°50' W 009°08'3 2.9
2015-Jun-29 03:33N 36°53' W 009°07'4 2.9
2015-Jun-29 02:21N 36°56' W 009°08'2 2.9
2015-Jun-29 01:32N 36°59' W 009°08'3 2.8
2015-Jun-29 00:33N 37°01' W 009°08'6 6.2
2015-Jun-28 23:33N 37°00' W 009°00'4 3.8
2015-Jun-28 22:33N 37°01' W 008°56'0 0.0
2015-Jun-28 21:33N 37°01' W 008°56'0 0.0
2015-Jun-28 20:31N 37°01' W 008°56'0 0.0
2015-Jun-28 19:23N 37°01' W 008°56'0 0.3
2015-Jun-28 18:34N 37°00' W 008°55'9 9.3
2015-Jun-28 17:33N 36°52' W 008°60'5 5.4
2015-Jun-28 16:33N 36°47' W 009°02'3 2.7
2015-Jun-28 15:34N 36°47' W 008°59'3 2.9
2015-Jun-28 14:33N 36°48' W 008°55'3 2.8
2015-Jun-28 13:28N 36°48' W 008°51'3 2.9
2015-Jun-28 12:28N 36°47' W 008°48'3 3.1
2015-Jun-28 11:33N 36°47' W 008°44'1 0.8
2015-Jun-28 10:34N 36°47' W 008°45'3 2.8
2015-Jun-28 09:34N 36°47' W 008°48'3 2.8
2015-Jun-28 08:33N 36°48' W 008°52'7 7.3
2015-Jun-28 07:33N 36°47' W 009°01'1 1.3
2015-Jun-28 06:32N 36°46' W 009°02'1 1.1
2015-Jun-28 05:33N 36°47' W 009°04'9 2.8
2015-Jun-28 02:27N 36°55' W 009°08'3 3.0
2015-Jun-28 01:33N 36°58' W 009°08'3 2.7
2015-Jun-28 00:33N 36°55' W 009°07'3 2.8
2015-Jun-27 23:33N 36°52' W 009°07'2 2.5
2015-Jun-27 22:34N 36°50' W 009°08'6 5.9
2015-Jun-27 21:32N 36°50' W 009°00'8 8.2
2015-Jun-27 20:33N 36°52' W 008°50'2 1.8
2015-Jun-27 19:33N 36°50' W 008°51'3 2.7
2015-Jun-27 18:33N 36°48' W 008°53'3 2.8
2015-Jun-27 17:33N 36°48' W 008°56'3 2.8
2015-Jun-27 16:33N 36°47' W 008°60'3 2.7
2015-Jun-27 15:34N 36°46' W 009°03'3 2.6
2015-Jun-27 14:33N 36°47' W 008°60'3 2.9
2015-Jun-27 13:33N 36°47' W 008°56'7 1.7
2015-Jun-27 09:26N 36°47' W 008°47'4 2.9
2015-Jun-27 08:06N 36°48' W 008°52'2 2.9
2015-Jun-27 07:29N 36°47' W 008°54'3 2.9
2015-Jun-27 06:33N 36°47' W 008°58'3 2.6
2015-Jun-27 05:31N 36°47' W 009°01'6 6.2
2015-Jun-27 04:33N 36°47' W 009°09'1 1.3
2015-Jun-27 03:33N 36°49' W 009°09'3 2.9
2015-Jun-27 02:33N 36°51' W 009°09'3 2.8
2015-Jun-27 01:33N 36°54' W 009°08'0 0.4
2015-Jun-27 00:34N 36°54' W 009°08'3 2.8
2015-Jun-26 23:34N 36°52' W 009°08'3 3.1
2015-Jun-26 22:28N 36°48' W 009°08'1 0.7
2015-Jun-26 21:33N 36°49' W 009°08'3 3.0
2015-Jun-26 20:33N 36°52' W 009°07'3 2.9
2015-Jun-26 19:33N 36°55' W 009°07'3 2.9
2015-Jun-26 18:33N 36°58' W 009°08'10 4.9
2015-Jun-26 16:24N 37°08' W 009°08'910.1
2015-Jun-26 15:33N 37°16' W 009°09'7 6.5
2015-Jun-26 14:33N 37°23' W 009°09'3 2.9
2015-Jun-26 13:33N 37°26' W 009°09'3 3.2
2015-Jun-26 12:33N 37°29' W 009°08'2 2.4
2015-Jun-26 11:34N 37°27' W 009°09'3 2.7
2015-Jun-26 10:33N 37°24' W 009°09'0 0.3
2015-Jun-26 09:33N 37°24' W 009°09'3 2.7
2015-Jun-26 08:33N 37°27' W 009°08'1 0.7
2015-Jun-26 06:33N 37°26' W 009°09'3 2.7
2015-Jun-26 05:33N 37°23' W 009°08'5 5.4
2015-Jun-26 04:33N 37°18' W 009°06'9 8.6
2015-Jun-26 03:33N 37°10' W 009°03'9 9.0
2015-Jun-26 02:33N 37°01' W 008°60'3 3.0
2015-Jun-26 01:24N 37°01' W 008°56'0 0.0
2015-Jun-26 00:31N 37°01' W 008°56'0 0.0
2015-Jun-25 23:32N 37°01' W 008°56'0 0.0
2015-Jun-25 22:32N 37°01' W 008°56'0 0.0
2015-Jun-25 21:23N 37°01' W 008°56'3 4.1
2015-Jun-25 20:33N 37°01' W 008°60'1210.1
2015-Jun-25 19:24N 37°12' W 009°05'9 9.9
2015-Jun-25 18:27N 37°21' W 009°09'3 2.7
2015-Jun-25 17:20N 37°24' W 009°09'2 2.9
2015-Jun-25 16:33N 37°26' W 009°09'3 2.9
2015-Jun-25 15:33N 37°29' W 009°08'1 0.9
2015-Jun-25 14:33N 37°28' W 009°09'3 2.8
2015-Jun-25 13:34N 37°25' W 009°09'2 2.3
2015-Jun-25 12:33N 37°23' W 009°09'3 2.8
2015-Jun-25 11:33N 37°26' W 009°09'3 3.0
2015-Jun-25 10:27N 37°29' W 009°08'1 1.1
2015-Jun-25 09:33N 37°28' W 009°08'3 2.9
2015-Jun-25 08:31N 37°25' W 009°08'3 2.8
2015-Jun-25 07:33N 37°23' W 009°08'13 0.9
2015-Jun-24 17:20N 37°35' W 009°12'1 1.1
2015-Jun-24 16:32N 37°36' W 009°12'3 2.9
2015-Jun-24 15:32N 37°39' W 009°13'3 2.9
2015-Jun-24 14:32N 37°42' W 009°14'3 2.9
2015-Jun-24 13:33N 37°45' W 009°14'3 3.2
2015-Jun-24 12:32N 37°48' W 009°15'1 1.3
2015-Jun-24 11:33N 37°47' W 009°16'3 2.8
2015-Jun-24 10:32N 37°44' W 009°15'3 3.4
2015-Jun-24 09:33N 37°41' W 009°14'3 2.6
2015-Jun-24 08:28N 37°44' W 009°14'3 2.8
2015-Jun-24 07:33N 37°46' W 009°14'3 2.8
2015-Jun-24 06:31N 37°49' W 009°15'3 2.6
2015-Jun-24 05:33N 37°52' W 009°14'6 6.4
2015-Jun-24 04:33N 37°58' W 009°12'10 9.6
2015-Jun-24 03:33N 38°07' W 009°10'10 9.8
2015-Jun-24 02:33N 38°17' W 009°08'10 9.6
2015-Jun-24 01:32N 38°26' W 009°06'0 0.1
2015-Jun-23 23:19N 38°26' W 009°07'0 0.0
2015-Jun-23 22:25N 38°26' W 009°07'0 0.0
2015-Jun-23 21:31N 38°26' W 009°07'0 0.1
2015-Jun-23 20:31N 38°26' W 009°07'0 0.0
2015-Jun-23 19:29N 38°26' W 009°07'6 7.7
2015-Jun-23 18:44N 38°24' W 009°14'  

Dump ship's entire track history